Time;durP1;ratioP1;P1;durP2;ratioP2;P2;SDS_P1;SDS_P2;PMS_P1;PMS_P2;Temp;Humidity;BMP_temperature;BMP_pressure;BME280_temperature;BME280_humidity;BME280_pressure;Samples;Min_cycle;Max_cycle;Signal;HPM_P1;HPM_P2
2022/11/18 00:01:26;;;;;;;1.60;1.33;;;;;;;;;;5024515;28;20222;-33
2022/11/18 00:03:53;;;;;;;2.37;1.20;;;;;;;;;;5036086;28;20206;-34
2022/11/18 00:06:21;;;;;;;0.67;0.67;;;;;;;;;;5035659;28;20194;-33
2022/11/18 00:08:49;;;;;;;0.80;0.60;;;;;;;;;;5022780;28;20203;-32
2022/11/18 00:16:44;;;;;;;0.40;0.40;;;;;;;;;;5025639;28;20248;-35
2022/11/18 00:19:11;;;;;;;0.67;0.40;;;;;;;;;;5029679;28;20195;-32
2022/11/18 00:21:38;;;;;;;1.17;0.57;;;;;;;;;;5030317;28;20317;-34
2022/11/18 00:24:05;;;;;;;0.50;0.50;;;;;;;;;;5022386;28;20217;-32
2022/11/18 00:26:34;;;;;;;0.50;0.50;;;;;;;;;;5029338;28;20552;-35
2022/11/18 00:29:02;;;;;;;0.40;0.40;;;;;;;;;;5022241;28;20227;-32
2022/11/18 00:31:29;;;;;;;0.50;0.50;;;;;;;;;;5024555;28;20222;-35
2022/11/18 00:33:56;;;;;;;0.80;0.70;;;;;;;;;;5031190;28;20212;-36
2022/11/18 00:36:23;;;;;;;1.30;1.00;;;;;;;;;;5034709;28;20212;-34
2022/11/18 00:38:50;;;;;;;0.50;0.50;;;;;;;;;;5022004;28;20219;-33
2022/11/18 00:41:17;;;;;;;1.80;0.70;;;;;;;;;;5034445;28;20233;-32
2022/11/18 00:43:45;;;;;;;0.60;0.60;;;;;;;;;;5031402;28;20218;-35
2022/11/18 00:46:13;;;;;;;0.67;0.67;;;;;;;;;;5039758;28;20205;-34
2022/11/18 00:48:40;;;;;;;0.70;0.70;;;;;;;;;;5038305;28;20211;-34
2022/11/18 00:51:08;;;;;;;0.70;0.70;;;;;;;;;;5035856;28;20233;-32
2022/11/18 00:53:37;;;;;;;0.50;0.50;;;;;;;;;;5028037;28;20209;-35
2022/11/18 00:56:04;;;;;;;0.50;0.50;;;;;;;;;;5033175;28;20209;-32
2022/11/18 00:58:31;;;;;;;0.90;0.77;;;;;;;;;;5029460;28;20206;-33
2022/11/18 01:01:00;;;;;;;0.60;0.57;;;;;;;;;;5024038;28;20229;-35
2022/11/18 01:03:27;;;;;;;0.70;0.60;;;;;;;;;;5042179;28;20217;-35
2022/11/18 01:05:54;;;;;;;0.80;0.70;;;;;;;;;;5024525;28;20223;-36
2022/11/18 01:08:22;;;;;;;0.70;0.60;;;;;;;;;;5028202;28;20206;-36
2022/11/18 01:10:51;;;;;;;0.50;0.50;;;;;;;;;;5035090;28;20707;-33
2022/11/18 01:13:18;;;;;;;0.90;0.50;;;;;;;;;;5033444;28;20268;-31
2022/11/18 01:15:46;;;;;;;1.73;0.60;;;;;;;;;;5020575;28;20211;-32
2022/11/18 01:18:15;;;;;;;0.53;0.53;;;;;;;;;;5033736;28;20293;-31
2022/11/18 01:20:42;;;;;;;0.93;0.80;;;;;;;;;;5035112;28;20249;-34
2022/11/18 01:23:09;;;;;;;0.43;0.40;;;;;;;;;;5031411;28;20199;-32
2022/11/18 01:25:37;;;;;;;0.50;0.50;;;;;;;;;;5034685;28;20211;-30
2022/11/18 01:28:04;;;;;;;1.53;0.70;;;;;;;;;;5034269;28;20206;-34
2022/11/18 01:30:33;;;;;;;1.30;0.53;;;;;;;;;;5027831;28;20222;-32
2022/11/18 01:33:00;;;;;;;1.23;0.70;;;;;;;;;;5034594;28;20210;-33
2022/11/18 01:35:29;;;;;;;0.50;0.50;;;;;;;;;;5035159;28;20203;-31
2022/11/18 01:37:56;;;;;;;1.07;0.67;;;;;;;;;;5026444;28;20203;-36
2022/11/18 01:40:23;;;;;;;1.63;0.67;;;;;;;;;;5031032;28;20229;-31
2022/11/18 01:42:50;;;;;;;0.30;0.30;;;;;;;;;;5035429;28;20207;-34
2022/11/18 01:45:25;;;;;;;3.23;0.90;;;;;;;;;;5020155;28;20209;-32
2022/11/18 01:47:54;;;;;;;0.43;0.40;;;;;;;;;;5032313;28;20212;-32
2022/11/18 01:50:22;;;;;;;1.63;0.70;;;;;;;;;;5035028;28;20231;-38
2022/11/18 01:52:51;;;;;;;1.17;0.60;;;;;;;;;;5031375;28;20274;-31
2022/11/18 01:55:20;;;;;;;1.43;0.97;;;;;;;;;;5027217;28;20266;-35
2022/11/18 01:57:48;;;;;;;1.03;1.03;;;;;;;;;;5033557;28;20214;-32
2022/11/18 02:00:15;;;;;;;0.87;0.87;;;;;;;;;;5018120;28;20225;-33
2022/11/18 02:02:43;;;;;;;2.00;1.00;;;;;;;;;;5024023;28;20214;-34
2022/11/18 02:05:11;;;;;;;1.97;1.07;;;;;;;;;;5032773;28;20290;-30
2022/11/18 02:07:40;;;;;;;1.00;1.00;;;;;;;;;;5045192;28;20202;-30
2022/11/18 02:10:10;;;;;;;0.77;0.77;;;;;;;;;;5027258;28;20223;-32
2022/11/18 02:12:37;;;;;;;1.80;0.70;;;;;;;;;;5025600;28;20597;-33
2022/11/18 02:15:05;;;;;;;1.63;0.70;;;;;;;;;;5029797;28;20679;-31
2022/11/18 02:17:38;;;;;;;1.00;0.90;;;;;;;;;;5034076;28;20203;-33
2022/11/18 02:20:13;;;;;;;0.70;0.70;;;;;;;;;;5034459;28;20205;-35
2022/11/18 02:23:04;;;;;;;0.80;0.57;;;;;;;;;;5027378;28;20213;-34
2022/11/18 02:25:40;;;;;;;0.90;0.87;;;;;;;;;;5013844;28;20207;-30
2022/11/18 02:28:25;;;;;;;0.80;0.80;;;;;;;;;;5034610;28;20196;-36
2022/11/18 02:30:58;;;;;;;0.80;0.80;;;;;;;;;;5031503;28;20234;-30
2022/11/18 02:33:27;;;;;;;1.50;1.00;;;;;;;;;;5035156;28;20199;-33
2022/11/18 02:35:57;;;;;;;1.97;1.07;;;;;;;;;;5034682;28;20208;-32
2022/11/18 02:38:27;;;;;;;0.77;0.77;;;;;;;;;;5039407;28;20205;-30
2022/11/18 02:40:56;;;;;;;1.20;0.80;;;;;;;;;;5018020;28;20230;-31
2022/11/18 02:43:25;;;;;;;0.90;0.90;;;;;;;;;;5031374;28;20253;-30
2022/11/18 02:45:54;;;;;;;1.17;1.03;;;;;;;;;;5026746;28;20243;-31
2022/11/18 02:48:24;;;;;;;1.00;1.00;;;;;;;;;;5033364;28;20201;-34
2022/11/18 02:50:52;;;;;;;1.20;1.00;;;;;;;;;;5033917;28;20229;-30
2022/11/18 02:53:20;;;;;;;1.30;1.20;;;;;;;;;;5023343;28;20217;-35
2022/11/18 02:55:48;;;;;;;1.23;1.10;;;;;;;;;;5030050;28;20298;-33
2022/11/18 02:58:17;;;;;;;0.93;0.90;;;;;;;;;;5031379;28;20226;-32
2022/11/18 03:00:45;;;;;;;1.17;1.03;;;;;;;;;;5029819;28;20229;-29
2022/11/18 03:03:24;;;;;;;0.90;0.90;;;;;;;;;;5033178;28;20198;-34
2022/11/18 03:05:53;;;;;;;2.00;1.10;;;;;;;;;;5032783;28;20202;-32
2022/11/18 03:08:22;;;;;;;0.80;0.80;;;;;;;;;;5021858;28;20200;-33
2022/11/18 03:10:53;;;;;;;0.90;0.90;;;;;;;;;;5029924;28;20325;-31
2022/11/18 03:13:23;;;;;;;1.27;1.10;;;;;;;;;;5030821;28;20297;-33
2022/11/18 03:15:55;;;;;;;1.20;0.90;;;;;;;;;;5028944;28;20297;-32
2022/11/18 03:18:28;;;;;;;1.50;1.07;;;;;;;;;;5033026;28;20191;-30
2022/11/18 03:20:59;;;;;;;0.80;0.80;;;;;;;;;;5033518;28;20227;-34
2022/11/18 03:23:28;;;;;;;1.00;0.80;;;;;;;;;;5027039;28;20226;-33
2022/11/18 03:25:57;;;;;;;0.80;0.80;;;;;;;;;;5030352;28;20235;-32
2022/11/18 03:28:26;;;;;;;1.20;0.80;;;;;;;;;;5031292;28;20214;-37
2022/11/18 03:30:56;;;;;;;1.73;1.10;;;;;;;;;;5031377;28;20234;-33
2022/11/18 03:33:25;;;;;;;0.70;0.70;;;;;;;;;;5032684;28;20293;-33
2022/11/18 03:35:54;;;;;;;0.80;0.80;;;;;;;;;;5032092;28;20207;-34
2022/11/18 03:38:24;;;;;;;1.53;0.90;;;;;;;;;;5028348;28;20204;-33
2022/11/18 03:40:54;;;;;;;0.83;0.83;;;;;;;;;;5025364;28;20253;-33
2022/11/18 03:43:24;;;;;;;0.77;0.77;;;;;;;;;;5030744;28;20197;-32
2022/11/18 03:45:52;;;;;;;1.40;0.80;;;;;;;;;;5025516;28;20278;-30
2022/11/18 03:48:20;;;;;;;1.33;0.73;;;;;;;;;;5032850;28;20250;-31
2022/11/18 03:50:52;;;;;;;0.60;0.60;;;;;;;;;;5032766;28;20230;-33
2022/11/18 03:53:20;;;;;;;0.53;0.50;;;;;;;;;;5022521;28;20203;-33
2022/11/18 03:55:51;;;;;;;3.40;1.03;;;;;;;;;;5028505;28;20213;-35
2022/11/18 03:58:21;;;;;;;0.63;0.63;;;;;;;;;;5033936;28;20190;-31
2022/11/18 04:00:49;;;;;;;0.60;0.60;;;;;;;;;;5026694;28;20230;-33
2022/11/18 04:03:16;;;;;;;0.60;0.60;;;;;;;;;;5032742;28;20202;-34
2022/11/18 04:05:44;;;;;;;0.67;0.60;;;;;;;;;;5031297;28;20202;-35
2022/11/18 04:08:15;;;;;;;0.83;0.50;;;;;;;;;;5021952;28;20206;-34
2022/11/18 04:10:46;;;;;;;0.40;0.40;;;;;;;;;;5035514;28;20232;-37
2022/11/18 04:13:15;;;;;;;0.57;0.57;;;;;;;;;;5034582;28;20293;-30
2022/11/18 04:15:43;;;;;;;1.13;0.57;;;;;;;;;;5022940;28;20211;-30
2022/11/18 04:18:10;;;;;;;2.60;0.70;;;;;;;;;;5035928;28;20565;-31
2022/11/18 04:20:38;;;;;;;1.07;0.40;;;;;;;;;;5036568;28;20229;-33
2022/11/18 04:23:05;;;;;;;0.83;0.33;;;;;;;;;;5029393;28;20209;-31
2022/11/18 04:25:34;;;;;;;0.60;0.40;;;;;;;;;;5030585;28;20218;-32
2022/11/18 04:28:01;;;;;;;0.83;0.50;;;;;;;;;;5036410;28;20217;-31
2022/11/18 04:30:28;;;;;;;0.70;0.50;;;;;;;;;;5024910;28;20260;-29
2022/11/18 04:32:55;;;;;;;0.40;0.40;;;;;;;;;;5034329;28;20203;-33
2022/11/18 04:35:23;;;;;;;0.43;0.43;;;;;;;;;;5030562;28;20207;-32
2022/11/18 04:37:50;;;;;;;0.50;0.50;;;;;;;;;;5038105;28;20293;-30
2022/11/18 04:40:17;;;;;;;0.50;0.50;;;;;;;;;;5029031;28;20222;-32
2022/11/18 04:42:46;;;;;;;0.30;0.30;;;;;;;;;;5036093;28;20203;-29
2022/11/18 04:45:17;;;;;;;0.57;0.57;;;;;;;;;;5025594;28;20203;-32
2022/11/18 04:47:44;;;;;;;0.73;0.33;;;;;;;;;;5033499;28;20213;-34
2022/11/18 04:50:11;;;;;;;1.17;0.30;;;;;;;;;;5035356;28;20222;-32
2022/11/18 04:52:38;;;;;;;0.43;0.40;;;;;;;;;;5032226;28;20203;-36
2022/11/18 04:55:06;;;;;;;0.80;0.50;;;;;;;;;;5032203;28;20209;-34
2022/11/18 04:57:33;;;;;;;0.47;0.43;;;;;;;;;;5039636;28;20208;-28
2022/11/18 05:00:01;;;;;;;0.23;0.23;;;;;;;;;;5025124;28;20230;-34
2022/11/18 05:02:28;;;;;;;0.30;0.30;;;;;;;;;;5032009;28;20203;-34
2022/11/18 05:04:55;;;;;;;0.23;0.23;;;;;;;;;;5035587;28;20206;-31
2022/11/18 05:07:23;;;;;;;0.57;0.30;;;;;;;;;;5031660;28;20217;-32
2022/11/18 05:09:50;;;;;;;0.73;0.40;;;;;;;;;;5024220;28;20207;-31
2022/11/18 05:15:03;;;;;;;1.20;0.43;;;;;;;;;;5027245;28;20294;-35
2022/11/18 05:17:30;;;;;;;1.63;0.57;;;;;;;;;;5033597;28;20210;-31
2022/11/18 05:19:59;;;;;;;0.83;0.33;;;;;;;;;;5035285;28;20205;-30
2022/11/18 05:22:26;;;;;;;0.90;0.53;;;;;;;;;;5024914;28;20210;-32
2022/11/18 05:24:53;;;;;;;2.17;0.30;;;;;;;;;;5287866;22;20654;-33
2022/11/18 05:27:21;;;;;;;1.00;0.70;;;;;;;;;;5046383;28;20202;-36
2022/11/18 05:29:48;;;;;;;0.70;0.30;;;;;;;;;;5043224;28;20214;-35
2022/11/18 05:32:16;;;;;;;0.30;0.30;;;;;;;;;;5048889;28;20226;-33
2022/11/18 05:34:44;;;;;;;0.93;0.60;;;;;;;;;;5051656;28;20233;-32
2022/11/18 05:37:11;;;;;;;0.53;0.50;;;;;;;;;;5048712;28;20208;-35
2022/11/18 05:39:38;;;;;;;1.37;0.50;;;;;;;;;;5045365;28;20293;-33
2022/11/18 05:45:02;;;;;;;0.40;0.40;;;;;;;;;;4987256;28;20569;-32
2022/11/18 05:47:58;;;;;;;2.43;0.50;;;;;;;;;;5038814;28;20293;-35
2022/11/18 05:50:18;;;;;;;0.37;0.37;;;;;;;;;;5032420;28;20285;-34
2022/11/18 05:52:45;;;;;;;0.80;0.50;;;;;;;;;;5044259;28;20217;-36
2022/11/18 05:55:14;;;;;;;0.33;0.33;;;;;;;;;;5041171;28;20275;-33
2022/11/18 05:57:41;;;;;;;0.40;0.40;;;;;;;;;;5052572;28;20205;-33
2022/11/18 06:00:08;;;;;;;0.30;0.30;;;;;;;;;;5043873;28;20256;-32
2022/11/18 06:02:37;;;;;;;0.60;0.50;;;;;;;;;;5045036;28;20206;-34
2022/11/18 06:05:05;;;;;;;0.30;0.30;;;;;;;;;;5044895;28;20211;-35
2022/11/18 06:07:36;;;;;;;2.47;0.30;;;;;;;;;;5039188;28;20238;-32
2022/11/18 06:10:03;;;;;;;0.50;0.27;;;;;;;;;;5050944;28;20258;-33
2022/11/18 06:12:32;;;;;;;0.30;0.30;;;;;;;;;;5051682;28;20714;-34
2022/11/18 06:15:01;;;;;;;0.30;0.30;;;;;;;;;;5047151;28;20212;-33
2022/11/18 06:17:32;;;;;;;0.40;0.40;;;;;;;;;;5052262;28;20226;-32
2022/11/18 06:20:00;;;;;;;1.70;0.40;;;;;;;;;;5052408;28;20198;-32
2022/11/18 06:22:28;;;;;;;0.30;0.20;;;;;;;;;;5038504;28;20207;-31
2022/11/18 06:24:55;;;;;;;0.20;0.20;;;;;;;;;;5042091;28;20218;-35
2022/11/18 06:27:22;;;;;;;1.03;0.47;;;;;;;;;;5052261;28;20198;-32
2022/11/18 06:29:49;;;;;;;0.20;0.20;;;;;;;;;;5044527;28;20567;-35
2022/11/18 06:32:19;;;;;;;0.20;0.20;;;;;;;;;;5041104;28;20223;-32
2022/11/18 06:34:46;;;;;;;0.27;0.27;;;;;;;;;;5047603;28;20201;-34
2022/11/18 06:37:15;;;;;;;0.13;0.13;;;;;;;;;;5051828;28;20297;-34
2022/11/18 06:39:42;;;;;;;1.07;0.20;;;;;;;;;;5051636;28;20225;-33
2022/11/18 06:42:09;;;;;;;0.30;0.23;;;;;;;;;;5045386;28;20685;-33
2022/11/18 06:44:35;;;;;;;0.40;0.40;;;;;;;;;;5042088;28;20676;-34
2022/11/18 06:47:04;;;;;;;0.30;0.30;;;;;;;;;;5047674;28;20261;-32
2022/11/18 06:49:31;;;;;;;1.00;0.43;;;;;;;;;;5049891;28;20198;-35
2022/11/18 06:51:58;;;;;;;1.13;0.50;;;;;;;;;;5038681;28;20226;-33
2022/11/18 06:54:27;;;;;;;0.80;0.47;;;;;;;;;;5049377;28;20202;-32
2022/11/18 06:56:54;;;;;;;0.20;0.20;;;;;;;;;;5049402;28;20287;-34
2022/11/18 06:59:23;;;;;;;0.30;0.30;;;;;;;;;;5045829;28;20209;-33
2022/11/18 07:01:51;;;;;;;0.57;0.40;;;;;;;;;;5049278;28;20761;-32
2022/11/18 07:04:19;;;;;;;0.27;0.27;;;;;;;;;;5046362;28;20198;-32
2022/11/18 07:06:46;;;;;;;0.30;0.30;;;;;;;;;;5048062;28;20210;-33
2022/11/18 07:09:13;;;;;;;0.43;0.40;;;;;;;;;;5048505;28;20571;-31
2022/11/18 07:11:41;;;;;;;1.07;0.50;;;;;;;;;;5051068;28;20222;-33
2022/11/18 07:14:09;;;;;;;0.27;0.20;;;;;;;;;;5048642;28;20210;-32
2022/11/18 07:16:36;;;;;;;2.57;0.40;;;;;;;;;;5048109;28;20284;-34
2022/11/18 07:19:08;;;;;;;0.20;0.20;;;;;;;;;;5052554;28;20808;-32
2022/11/18 07:21:35;;;;;;;0.93;0.20;;;;;;;;;;5049251;28;20220;-33
2022/11/18 07:24:05;;;;;;;1.23;0.40;;;;;;;;;;5041875;28;20674;-32
2022/11/18 07:26:32;;;;;;;0.47;0.30;;;;;;;;;;5052554;28;20198;-33
2022/11/18 07:29:00;;;;;;;0.30;0.30;;;;;;;;;;5047116;28;20656;-31
2022/11/18 07:31:27;;;;;;;0.30;0.30;;;;;;;;;;5051523;28;20229;-34
2022/11/18 07:33:55;;;;;;;0.37;0.37;;;;;;;;;;5052145;28;20741;-33
2022/11/18 07:36:23;;;;;;;0.30;0.30;;;;;;;;;;5049949;28;20217;-32
2022/11/18 07:38:50;;;;;;;0.30;0.30;;;;;;;;;;5039848;28;20221;-34
2022/11/18 07:41:19;;;;;;;0.40;0.40;;;;;;;;;;5051961;28;20214;-33
2022/11/18 07:43:46;;;;;;;0.87;0.30;;;;;;;;;;5046466;28;20213;-32
2022/11/18 07:46:15;;;;;;;0.73;0.53;;;;;;;;;;5044206;28;20213;-31
2022/11/18 07:48:44;;;;;;;1.33;0.60;;;;;;;;;;5052211;28;20198;-33
2022/11/18 07:51:11;;;;;;;0.50;0.50;;;;;;;;;;5052042;28;20232;-32
2022/11/18 07:53:38;;;;;;;1.17;0.70;;;;;;;;;;5044437;28;20216;-33
2022/11/18 07:56:06;;;;;;;0.40;0.40;;;;;;;;;;5051864;28;20202;-36
2022/11/18 07:58:33;;;;;;;0.80;0.80;;;;;;;;;;5050093;28;20297;-31
2022/11/18 08:01:06;;;;;;;0.73;0.63;;;;;;;;;;5047382;28;20855;-34
2022/11/18 08:03:35;;;;;;;0.63;0.60;;;;;;;;;;5051734;28;20229;-31
2022/11/18 08:06:02;;;;;;;0.80;0.70;;;;;;;;;;5049503;28;20289;-32
2022/11/18 08:08:30;;;;;;;0.70;0.70;;;;;;;;;;5041223;28;20198;-33
2022/11/18 08:10:57;;;;;;;0.93;0.70;;;;;;;;;;5050255;28;20218;-34
2022/11/18 08:13:24;;;;;;;1.53;0.77;;;;;;;;;;5048384;28;20695;-33
2022/11/18 08:15:51;;;;;;;0.87;0.87;;;;;;;;;;5045169;28;20638;-34
2022/11/18 08:18:22;;;;;;;0.67;0.67;;;;;;;;;;5042886;28;20644;-33
2022/11/18 08:20:50;;;;;;;0.83;0.83;;;;;;;;;;5046094;28;20222;-34
2022/11/18 08:23:18;;;;;;;1.00;0.90;;;;;;;;;;5045644;28;20560;-34
2022/11/18 08:25:45;;;;;;;1.00;0.90;;;;;;;;;;5043660;28;20215;-34
2022/11/18 08:28:13;;;;;;;2.30;2.03;;;;;;;;;;5042735;28;20197;-35
2022/11/18 08:30:41;;;;;;;1.07;1.03;;;;;;;;;;5042717;28;20231;-33
2022/11/18 08:33:08;;;;;;;3.20;1.53;;;;;;;;;;5048506;28;20218;-32
2022/11/18 08:35:35;;;;;;;1.17;1.13;;;;;;;;;;5050059;28;20470;-32
2022/11/18 08:38:04;;;;;;;0.87;0.87;;;;;;;;;;5042318;28;20264;-33
2022/11/18 08:40:31;;;;;;;0.90;0.80;;;;;;;;;;5048108;28;20227;-34
2022/11/18 08:42:58;;;;;;;0.90;0.70;;;;;;;;;;5048836;28;20198;-32
2022/11/18 08:45:25;;;;;;;1.50;1.00;;;;;;;;;;5042543;28;20198;-33
2022/11/18 08:47:52;;;;;;;0.50;0.50;;;;;;;;;;5045453;28;20610;-33
2022/11/18 08:50:20;;;;;;;0.67;0.60;;;;;;;;;;5034792;28;20261;-33
2022/11/18 08:52:47;;;;;;;1.13;0.77;;;;;;;;;;5044995;28;20226;-34
2022/11/18 08:55:15;;;;;;;0.87;0.60;;;;;;;;;;5051170;28;20198;-32
2022/11/18 08:57:42;;;;;;;0.60;0.60;;;;;;;;;;5055273;28;20201;-32
2022/11/18 09:00:17;;;;;;;0.80;0.80;;;;;;;;;;5046652;28;20223;-33
2022/11/18 09:02:46;;;;;;;1.70;0.90;;;;;;;;;;5053770;28;20289;-34
2022/11/18 09:05:13;;;;;;;0.90;0.90;;;;;;;;;;5042093;28;20861;-32
2022/11/18 09:07:40;;;;;;;0.80;0.80;;;;;;;;;;5041864;28;20435;-34
2022/11/18 09:10:08;;;;;;;0.80;0.80;;;;;;;;;;5051714;28;20713;-32
2022/11/18 09:12:37;;;;;;;1.73;0.73;;;;;;;;;;5052763;28;20217;-33
2022/11/18 09:15:04;;;;;;;0.60;0.60;;;;;;;;;;5042142;28;20221;-32
2022/11/18 09:17:31;;;;;;;0.60;0.60;;;;;;;;;;5051019;28;20202;-33
2022/11/18 09:19:58;;;;;;;1.00;0.70;;;;;;;;;;5045199;28;20210;-34
2022/11/18 09:22:25;;;;;;;0.77;0.77;;;;;;;;;;5047325;28;20209;-33
2022/11/18 09:24:52;;;;;;;1.67;0.67;;;;;;;;;;5046697;28;20225;-33
2022/11/18 09:27:20;;;;;;;0.90;0.70;;;;;;;;;;5052154;28;20490;-34
2022/11/18 09:29:49;;;;;;;0.70;0.70;;;;;;;;;;5046788;28;20209;-33
2022/11/18 09:32:16;;;;;;;0.57;0.57;;;;;;;;;;5050274;28;20699;-35
2022/11/18 09:34:43;;;;;;;0.70;0.50;;;;;;;;;;5051346;28;20648;-32
2022/11/18 09:37:11;;;;;;;3.87;0.70;;;;;;;;;;5048707;28;20293;-32
2022/11/18 09:39:38;;;;;;;0.83;0.57;;;;;;;;;;5046563;28;20212;-34
2022/11/18 09:42:13;;;;;;;0.57;0.57;;;;;;;;;;5049944;28;20222;-33
2022/11/18 09:44:50;;;;;;;0.40;0.40;;;;;;;;;;5047145;28;20595;-33
2022/11/18 09:47:23;;;;;;;0.70;0.70;;;;;;;;;;5046635;28;20220;-31
2022/11/18 09:49:50;;;;;;;0.70;0.70;;;;;;;;;;5051258;28;20248;-33
2022/11/18 09:52:20;;;;;;;0.53;0.50;;;;;;;;;;5049510;28;20225;-35
2022/11/18 09:54:47;;;;;;;3.20;0.50;;;;;;;;;;5041872;28;20657;-33
2022/11/18 09:57:16;;;;;;;0.50;0.50;;;;;;;;;;5049787;28;20216;-31
2022/11/18 09:59:43;;;;;;;0.50;0.50;;;;;;;;;;5037252;28;20233;-32
2022/11/18 10:02:27;;;;;;;0.87;0.87;;;;;;;;;;5044173;28;20683;-36
2022/11/18 10:04:55;;;;;;;0.70;0.53;;;;;;;;;;5038626;28;20209;-33
2022/11/18 10:07:25;;;;;;;1.57;0.70;;;;;;;;;;5031807;28;20202;-32
2022/11/18 10:09:55;;;;;;;0.70;0.70;;;;;;;;;;5037363;28;20333;-32
2022/11/18 10:12:26;;;;;;;1.03;0.80;;;;;;;;;;5049358;28;20657;-34
2022/11/18 10:14:58;;;;;;;0.70;0.70;;;;;;;;;;5037971;28;20911;-35
2022/11/18 10:17:33;;;;;;;2.30;0.83;;;;;;;;;;5049017;28;20194;-36
2022/11/18 10:20:08;;;;;;;1.00;0.67;;;;;;;;;;5050303;28;20677;-36
2022/11/18 10:22:40;;;;;;;2.50;0.70;;;;;;;;;;5042967;28;20611;-32
2022/11/18 10:25:11;;;;;;;1.70;1.03;;;;;;;;;;5043810;28;20210;-32
2022/11/18 10:27:40;;;;;;;0.70;0.70;;;;;;;;;;5050403;28;20229;-34
2022/11/18 10:30:11;;;;;;;0.60;0.53;;;;;;;;;;5042491;28;20289;-35
2022/11/18 10:32:54;;;;;;;0.63;0.63;;;;;;;;;;5044960;28;20222;-35
2022/11/18 10:35:25;;;;;;;0.60;0.60;;;;;;;;;;5047893;28;20210;-33
2022/11/18 10:38:01;;;;;;;2.03;0.80;;;;;;;;;;5050674;28;20224;-33
2022/11/18 10:40:29;;;;;;;1.10;0.60;;;;;;;;;;5046578;28;20225;-34
2022/11/18 10:42:57;;;;;;;0.50;0.50;;;;;;;;;;5051029;28;20198;-33
2022/11/18 10:45:25;;;;;;;0.50;0.50;;;;;;;;;;5045389;28;20206;-34
2022/11/18 10:47:58;;;;;;;0.67;0.60;;;;;;;;;;5040097;28;20228;-33
2022/11/18 10:50:34;;;;;;;7.27;2.50;;;;;;;;;;5048920;28;20232;-36
2022/11/18 10:53:01;;;;;;;1.73;1.60;;;;;;;;;;5045325;28;20213;-35
2022/11/18 10:55:29;;;;;;;0.60;0.57;;;;;;;;;;5048129;28;20717;-32
2022/11/18 10:57:58;;;;;;;0.73;0.73;;;;;;;;;;5049637;28;20292;-34
2022/11/18 11:00:43;;;;;;;1.37;1.07;;;;;;;;;;5042121;28;20233;-33
2022/11/18 11:03:24;;;;;;;1.60;1.50;;;;;;;;;;5041583;28;20405;-33
2022/11/18 11:06:09;;;;;;;0.70;0.70;;;;;;;;;;5046127;28;20296;-34
2022/11/18 11:08:47;;;;;;;1.40;1.30;;;;;;;;;;5038148;28;20198;-33
2022/11/18 11:11:24;;;;;;;1.03;0.90;;;;;;;;;;5036766;28;20228;-34
2022/11/18 11:13:52;;;;;;;1.30;1.20;;;;;;;;;;5037392;28;20961;-33
2022/11/18 11:16:20;;;;;;;2.50;1.00;;;;;;;;;;5043549;28;20308;-32
2022/11/18 11:18:51;;;;;;;1.30;1.20;;;;;;;;;;5047920;28;20206;-35
2022/11/18 11:21:19;;;;;;;0.97;0.97;;;;;;;;;;5048748;28;20233;-34
2022/11/18 11:23:47;;;;;;;1.30;1.07;;;;;;;;;;5032223;28;20295;-33
2022/11/18 11:26:22;;;;;;;2.20;1.60;;;;;;;;;;5133834;22;20240;-32
2022/11/18 11:28:53;;;;;;;2.53;1.60;;;;;;;;;;5038717;28;20207;-35
2022/11/18 11:31:22;;;;;;;2.57;1.47;;;;;;;;;;5040739;28;20225;-33
2022/11/18 11:33:53;;;;;;;1.70;1.60;;;;;;;;;;5046059;28;20286;-33
2022/11/18 11:36:29;;;;;;;7.00;1.30;;;;;;;;;;5046492;28;20198;-34
2022/11/18 11:39:01;;;;;;;1.50;1.40;;;;;;;;;;5036222;28;20201;-31
2022/11/18 11:41:31;;;;;;;3.40;1.57;;;;;;;;;;5046394;28;20214;-34
2022/11/18 11:44:13;;;;;;;1.50;1.40;;;;;;;;;;5041469;28;20194;-30
2022/11/18 11:47:45;;;;;;;0.80;0.80;;;;;;;;;;5045528;28;20207;-34
2022/11/18 11:49:44;;;;;;;1.53;0.80;;;;;;;;;;5046277;28;20207;-32
2022/11/18 11:52:15;;;;;;;0.60;0.60;;;;;;;;;;5042494;28;20239;-35
2022/11/18 11:54:49;;;;;;;1.13;0.97;;;;;;;;;;5037075;28;20212;-38
2022/11/18 11:57:21;;;;;;;0.80;0.70;;;;;;;;;;5047706;28;20198;-35
2022/11/18 11:59:52;;;;;;;0.93;0.80;;;;;;;;;;5039229;28;20238;-30
2022/11/18 12:02:35;;;;;;;1.07;0.90;;;;;;;;;;5037741;28;20202;-36
2022/11/18 12:05:08;;;;;;;0.63;0.63;;;;;;;;;;5034542;28;20237;-34
2022/11/18 12:07:40;;;;;;;1.80;0.77;;;;;;;;;;5040563;28;20213;-33
2022/11/18 12:10:24;;;;;;;1.83;0.87;;;;;;;;;;5042566;28;20229;-32
2022/11/18 12:12:55;;;;;;;1.27;1.10;;;;;;;;;;5047693;28;20236;-34
2022/11/18 12:15:30;;;;;;;2.10;1.10;;;;;;;;;;5038615;28;20210;-35
2022/11/18 12:18:03;;;;;;;1.03;1.03;;;;;;;;;;5040196;28;20220;-32
2022/11/18 12:20:37;;;;;;;2.10;1.47;;;;;;;;;;5045042;28;20328;-34
2022/11/18 12:23:12;;;;;;;1.33;1.33;;;;;;;;;;5026183;28;20212;-30
2022/11/18 12:25:53;;;;;;;1.60;1.50;;;;;;;;;;5040192;28;20209;-34
2022/11/18 12:28:25;;;;;;;1.53;1.13;;;;;;;;;;5034847;28;20263;-33
2022/11/18 12:31:16;;;;;;;2.17;1.50;;;;;;;;;;5043879;28;20236;-29
2022/11/18 12:33:44;;;;;;;1.30;1.17;;;;;;;;;;5049844;28;20225;-32
2022/11/18 12:36:11;;;;;;;1.30;1.20;;;;;;;;;;5037200;28;20201;-33
2022/11/18 12:38:39;;;;;;;1.47;1.07;;;;;;;;;;5034392;28;20202;-32
2022/11/18 12:44:23;;;;;;;1.57;1.10;;;;;;;;;;5035623;28;20237;-30
2022/11/18 12:46:54;;;;;;;1.27;0.90;;;;;;;;;;5049276;28;20208;-32
2022/11/18 12:49:40;;;;;;;1.03;1.00;;;;;;;;;;5049021;28;20213;-31
2022/11/18 12:52:28;;;;;;;1.33;0.77;;;;;;;;;;5043794;28;20674;-32
2022/11/18 12:54:56;;;;;;;1.37;0.80;;;;;;;;;;5049537;28;20206;-29
2022/11/18 12:57:27;;;;;;;0.80;0.70;;;;;;;;;;5055078;28;20212;-28
2022/11/18 12:59:54;;;;;;;4.23;0.90;;;;;;;;;;5049587;28;20210;-33
2022/11/18 13:02:23;;;;;;;0.50;0.50;;;;;;;;;;5046179;28;20198;-31
2022/11/18 13:05:08;;;;;;;1.50;0.67;;;;;;;;;;5036412;28;20233;-33
2022/11/18 13:10:27;;;;;;;0.50;0.50;;;;;;;;;;5033872;28;20220;-31
2022/11/18 13:12:55;;;;;;;1.93;0.90;;;;;;;;;;5038967;28;20229;-33
2022/11/18 13:18:12;;;;;;;1.53;0.77;;;;;;;;;;5039561;28;20210;-31
2022/11/18 13:20:40;;;;;;;2.57;0.53;;;;;;;;;;5051922;28;20312;-32
2022/11/18 13:26:14;;;;;;;1.40;0.87;;;;;;;;;;5049829;28;20204;-33
2022/11/18 13:28:45;;;;;;;2.53;0.90;;;;;;;;;;5038771;28;20217;-33
2022/11/18 13:31:16;;;;;;;0.80;0.77;;;;;;;;;;5051777;28;20280;-25
2022/11/18 13:33:44;;;;;;;0.83;0.83;;;;;;;;;;5052975;28;20206;-29
2022/11/18 13:36:18;;;;;;;2.00;1.17;;;;;;;;;;5022678;28;20335;-25
2022/11/18 13:38:55;;;;;;;1.33;0.70;;;;;;;;;;5043517;28;20255;-29
2022/11/18 13:41:23;;;;;;;1.43;0.77;;;;;;;;;;5043392;28;20240;-29
2022/11/18 13:43:52;;;;;;;1.43;1.20;;;;;;;;;;5048628;28;20537;-28
2022/11/18 13:46:22;;;;;;;2.20;0.77;;;;;;;;;;5048373;28;20208;-28
2022/11/18 13:48:51;;;;;;;2.73;1.30;;;;;;;;;;5051374;28;20411;-27
2022/11/18 13:51:18;;;;;;;1.47;1.37;;;;;;;;;;5050101;28;20226;-26
2022/11/18 13:53:46;;;;;;;0.90;0.90;;;;;;;;;;5049174;28;20236;-27
2022/11/18 13:56:16;;;;;;;1.60;1.10;;;;;;;;;;5038013;28;20209;-27
2022/11/18 13:58:44;;;;;;;2.07;1.30;;;;;;;;;;5041314;28;20211;-27
2022/11/18 14:01:16;;;;;;;1.77;1.10;;;;;;;;;;5042620;28;20308;-28
2022/11/18 14:03:49;;;;;;;2.17;1.00;;;;;;;;;;5047556;28;20202;-26
2022/11/18 14:06:24;;;;;;;4.30;1.40;;;;;;;;;;5046066;28;20228;-28
2022/11/18 14:08:52;;;;;;;7.33;5.83;;;;;;;;;;5037946;28;20202;-29
2022/11/18 14:11:34;;;;;;;2.60;2.33;;;;;;;;;;5047914;28;20221;-30
2022/11/18 14:14:01;;;;;;;3.57;1.70;;;;;;;;;;5039834;28;20321;-29
2022/11/18 14:16:34;;;;;;;2.50;1.90;;;;;;;;;;5037366;28;20206;-30
2022/11/18 14:19:02;;;;;;;1.73;1.63;;;;;;;;;;5048413;28;20212;-27
2022/11/18 14:21:29;;;;;;;1.60;1.50;;;;;;;;;;5048630;28;20229;-28
2022/11/18 14:23:57;;;;;;;5.10;1.80;;;;;;;;;;5038455;28;20213;-28
2022/11/18 14:26:28;;;;;;;5.60;3.03;;;;;;;;;;5033589;28;20216;-25
2022/11/18 14:28:55;;;;;;;2.80;2.27;;;;;;;;;;5043005;28;20207;-26
2022/11/18 14:31:24;;;;;;;5.30;3.20;;;;;;;;;;5044067;28;20222;-25
2022/11/18 14:34:17;;;;;;;2.67;1.60;;;;;;;;;;5045382;28;20316;-23
2022/11/18 14:36:44;;;;;;;3.23;2.00;;;;;;;;;;5048054;28;20213;-30
2022/11/18 14:39:20;;;;;;;3.93;1.73;;;;;;;;;;5041673;28;20202;-29
2022/11/18 14:41:47;;;;;;;8.07;2.03;;;;;;;;;;5043060;28;20296;-28
2022/11/18 14:44:14;;;;;;;2.27;1.90;;;;;;;;;;5029021;28;20208;-29
2022/11/18 14:46:43;;;;;;;1.77;1.40;;;;;;;;;;5039018;28;20214;-28
2022/11/18 14:49:13;;;;;;;2.40;1.40;;;;;;;;;;5047318;28;20208;-30
2022/11/18 14:51:41;;;;;;;2.00;1.33;;;;;;;;;;5048008;28;20236;-27
2022/11/18 14:54:12;;;;;;;1.27;1.00;;;;;;;;;;5041615;28;20232;-25
2022/11/18 14:56:39;;;;;;;1.47;1.37;;;;;;;;;;5038198;28;20197;-29
2022/11/18 14:59:06;;;;;;;1.90;1.10;;;;;;;;;;5040364;28;20206;-28
2022/11/18 15:01:33;;;;;;;1.50;0.80;;;;;;;;;;5046920;28;20218;-26
2022/11/18 15:04:00;;;;;;;2.30;1.20;;;;;;;;;;5046349;28;20209;-30
2022/11/18 15:06:28;;;;;;;3.70;1.40;;;;;;;;;;5044171;28;20198;-28
2022/11/18 15:08:57;;;;;;;1.30;1.20;;;;;;;;;;5032705;28;20210;-28
2022/11/18 15:11:24;;;;;;;2.33;1.37;;;;;;;;;;5047156;28;20214;-26
2022/11/18 15:13:51;;;;;;;2.00;1.20;;;;;;;;;;5045598;28;20236;-29
2022/11/18 15:16:19;;;;;;;1.10;1.03;;;;;;;;;;5037939;28;20202;-26
2022/11/18 15:18:47;;;;;;;2.67;1.10;;;;;;;;;;5047548;28;20208;-28
2022/11/18 15:21:15;;;;;;;1.50;1.27;;;;;;;;;;5042896;28;20222;-26